sensor_id;sensor_type;location;lat;lon;timestamp;P1;durP1;ratioP1;P2;durP2;ratioP2
19339;SDS011;9804;52.350;6.684;2022-10-22T00:01:17;16.65;;;10.48;;
19339;SDS011;9804;52.350;6.684;2022-10-22T00:03:44;16.70;;;10.10;;
19339;SDS011;9804;52.350;6.684;2022-10-22T00:06:10;23.20;;;10.95;;
19339;SDS011;9804;52.350;6.684;2022-10-22T00:08:35;17.58;;;10.88;;
19339;SDS011;9804;52.350;6.684;2022-10-22T00:11:34;15.25;;;10.48;;
19339;SDS011;9804;52.350;6.684;2022-10-22T00:13:52;17.65;;;9.95;;
19339;SDS011;9804;52.350;6.684;2022-10-22T00:16:18;15.98;;;10.05;;
19339;SDS011;9804;52.350;6.684;2022-10-22T00:18:43;17.83;;;10.23;;
19339;SDS011;9804;52.350;6.684;2022-10-22T00:21:08;18.52;;;10.82;;
19339;SDS011;9804;52.350;6.684;2022-10-22T00:23:39;16.05;;;11.07;;
19339;SDS011;9804;52.350;6.684;2022-10-22T00:26:06;14.57;;;10.85;;
19339;SDS011;9804;52.350;6.684;2022-10-22T00:28:32;20.20;;;11.43;;
19339;SDS011;9804;52.350;6.684;2022-10-22T00:30:58;15.15;;;10.18;;
19339;SDS011;9804;52.350;6.684;2022-10-22T00:33:24;19.58;;;12.00;;
19339;SDS011;9804;52.350;6.684;2022-10-22T00:35:50;22.35;;;12.23;;
19339;SDS011;9804;52.350;6.684;2022-10-22T00:38:16;19.95;;;12.75;;
19339;SDS011;9804;52.350;6.684;2022-10-22T00:40:41;18.00;;;11.57;;
19339;SDS011;9804;52.350;6.684;2022-10-22T00:43:10;22.02;;;12.20;;
19339;SDS011;9804;52.350;6.684;2022-10-22T00:45:37;17.70;;;11.35;;
19339;SDS011;9804;52.350;6.684;2022-10-22T00:48:06;21.55;;;12.77;;
19339;SDS011;9804;52.350;6.684;2022-10-22T00:50:40;16.42;;;11.20;;
19339;SDS011;9804;52.350;6.684;2022-10-22T00:53:14;21.05;;;11.73;;
19339;SDS011;9804;52.350;6.684;2022-10-22T00:55:44;20.95;;;12.35;;
19339;SDS011;9804;52.350;6.684;2022-10-22T00:58:11;23.30;;;12.70;;
19339;SDS011;9804;52.350;6.684;2022-10-22T01:00:37;20.75;;;12.52;;
19339;SDS011;9804;52.350;6.684;2022-10-22T01:03:03;17.67;;;12.98;;
19339;SDS011;9804;52.350;6.684;2022-10-22T01:05:29;18.40;;;11.52;;
19339;SDS011;9804;52.350;6.684;2022-10-22T01:07:56;22.40;;;12.52;;
19339;SDS011;9804;52.350;6.684;2022-10-22T01:15:40;23.58;;;13.20;;
19339;SDS011;9804;52.350;6.684;2022-10-22T01:23:48;23.33;;;13.30;;
19339;SDS011;9804;52.350;6.684;2022-10-22T01:26:39;25.15;;;13.68;;
19339;SDS011;9804;52.350;6.684;2022-10-22T01:29:38;19.98;;;13.73;;
19339;SDS011;9804;52.350;6.684;2022-10-22T01:32:08;24.25;;;14.05;;
19339;SDS011;9804;52.350;6.684;2022-10-22T01:34:38;25.00;;;12.65;;
19339;SDS011;9804;52.350;6.684;2022-10-22T01:37:06;27.00;;;14.05;;
19339;SDS011;9804;52.350;6.684;2022-10-22T01:39:32;23.42;;;14.15;;
19339;SDS011;9804;52.350;6.684;2022-10-22T01:41:59;24.27;;;13.55;;
19339;SDS011;9804;52.350;6.684;2022-10-22T01:46:53;22.02;;;13.68;;
19339;SDS011;9804;52.350;6.684;2022-10-22T01:52:14;29.10;;;15.57;;
19339;SDS011;9804;52.350;6.684;2022-10-22T01:55:04;27.60;;;14.60;;
19339;SDS011;9804;52.350;6.684;2022-10-22T01:58:01;23.88;;;13.40;;
19339;SDS011;9804;52.350;6.684;2022-10-22T02:00:49;30.02;;;15.45;;
19339;SDS011;9804;52.350;6.684;2022-10-22T02:03:25;26.38;;;15.32;;
19339;SDS011;9804;52.350;6.684;2022-10-22T02:05:56;26.77;;;14.38;;
19339;SDS011;9804;52.350;6.684;2022-10-22T02:08:30;30.25;;;16.00;;
19339;SDS011;9804;52.350;6.684;2022-10-22T02:10:57;24.85;;;14.98;;
19339;SDS011;9804;52.350;6.684;2022-10-22T02:13:28;25.85;;;15.57;;
19339;SDS011;9804;52.350;6.684;2022-10-22T02:15:58;26.30;;;15.63;;
19339;SDS011;9804;52.350;6.684;2022-10-22T02:18:27;26.88;;;15.40;;
19339;SDS011;9804;52.350;6.684;2022-10-22T02:20:54;31.67;;;16.13;;
19339;SDS011;9804;52.350;6.684;2022-10-22T02:23:21;27.75;;;14.88;;
19339;SDS011;9804;52.350;6.684;2022-10-22T02:25:48;24.75;;;15.32;;
19339;SDS011;9804;52.350;6.684;2022-10-22T02:30:51;29.30;;;16.10;;
19339;SDS011;9804;52.350;6.684;2022-10-22T02:33:24;33.38;;;17.23;;
19339;SDS011;9804;52.350;6.684;2022-10-22T02:35:52;28.40;;;15.68;;
19339;SDS011;9804;52.350;6.684;2022-10-22T02:38:19;29.92;;;16.65;;
19339;SDS011;9804;52.350;6.684;2022-10-22T02:40:47;32.80;;;15.43;;
19339;SDS011;9804;52.350;6.684;2022-10-22T02:43:12;30.55;;;15.90;;
19339;SDS011;9804;52.350;6.684;2022-10-22T02:45:37;32.38;;;16.88;;
19339;SDS011;9804;52.350;6.684;2022-10-22T02:48:03;28.33;;;16.55;;
19339;SDS011;9804;52.350;6.684;2022-10-22T02:50:29;32.60;;;17.75;;
19339;SDS011;9804;52.350;6.684;2022-10-22T02:52:54;28.50;;;14.60;;
19339;SDS011;9804;52.350;6.684;2022-10-22T02:55:19;31.27;;;17.42;;
19339;SDS011;9804;52.350;6.684;2022-10-22T02:57:45;31.98;;;16.25;;
19339;SDS011;9804;52.350;6.684;2022-10-22T03:00:10;28.77;;;16.35;;
19339;SDS011;9804;52.350;6.684;2022-10-22T03:02:36;36.58;;;17.85;;
19339;SDS011;9804;52.350;6.684;2022-10-22T03:05:02;32.65;;;17.65;;
19339;SDS011;9804;52.350;6.684;2022-10-22T03:07:28;35.00;;;17.33;;
19339;SDS011;9804;52.350;6.684;2022-10-22T03:09:53;35.58;;;17.95;;
19339;SDS011;9804;52.350;6.684;2022-10-22T03:12:19;37.25;;;17.30;;
19339;SDS011;9804;52.350;6.684;2022-10-22T03:14:44;46.72;;;19.15;;
19339;SDS011;9804;52.350;6.684;2022-10-22T03:17:10;32.88;;;19.40;;
19339;SDS011;9804;52.350;6.684;2022-10-22T03:19:35;29.55;;;16.75;;
19339;SDS011;9804;52.350;6.684;2022-10-22T03:22:22;31.42;;;18.23;;
19339;SDS011;9804;52.350;6.684;2022-10-22T03:24:49;34.70;;;18.58;;
19339;SDS011;9804;52.350;6.684;2022-10-22T03:27:18;38.35;;;18.67;;
19339;SDS011;9804;52.350;6.684;2022-10-22T03:29:45;32.25;;;18.08;;
19339;SDS011;9804;52.350;6.684;2022-10-22T03:32:11;37.05;;;19.40;;
19339;SDS011;9804;52.350;6.684;2022-10-22T03:34:37;34.65;;;17.00;;
19339;SDS011;9804;52.350;6.684;2022-10-22T03:37:02;32.80;;;15.82;;
19339;SDS011;9804;52.350;6.684;2022-10-22T03:39:28;44.20;;;19.55;;
19339;SDS011;9804;52.350;6.684;2022-10-22T03:41:57;39.15;;;19.35;;
19339;SDS011;9804;52.350;6.684;2022-10-22T03:44:22;42.45;;;19.95;;
19339;SDS011;9804;52.350;6.684;2022-10-22T03:46:48;41.40;;;20.13;;
19339;SDS011;9804;52.350;6.684;2022-10-22T03:49:14;39.03;;;19.90;;
19339;SDS011;9804;52.350;6.684;2022-10-22T03:51:39;38.28;;;19.00;;
19339;SDS011;9804;52.350;6.684;2022-10-22T03:54:05;41.47;;;19.52;;
19339;SDS011;9804;52.350;6.684;2022-10-22T03:56:30;42.63;;;18.92;;
19339;SDS011;9804;52.350;6.684;2022-10-22T03:58:57;37.40;;;18.60;;
19339;SDS011;9804;52.350;6.684;2022-10-22T04:01:23;36.70;;;19.67;;
19339;SDS011;9804;52.350;6.684;2022-10-22T04:03:49;51.95;;;21.17;;
19339;SDS011;9804;52.350;6.684;2022-10-22T04:06:14;41.35;;;21.13;;
19339;SDS011;9804;52.350;6.684;2022-10-22T04:08:40;39.53;;;20.83;;
19339;SDS011;9804;52.350;6.684;2022-10-22T04:11:08;40.33;;;19.38;;
19339;SDS011;9804;52.350;6.684;2022-10-22T04:13:34;41.10;;;20.13;;
19339;SDS011;9804;52.350;6.684;2022-10-22T04:18:54;42.92;;;20.65;;
19339;SDS011;9804;52.350;6.684;2022-10-22T04:21:20;39.00;;;19.88;;
19339;SDS011;9804;52.350;6.684;2022-10-22T04:23:47;41.10;;;20.42;;
19339;SDS011;9804;52.350;6.684;2022-10-22T04:26:14;45.75;;;20.83;;
19339;SDS011;9804;52.350;6.684;2022-10-22T04:28:40;42.67;;;20.80;;
19339;SDS011;9804;52.350;6.684;2022-10-22T04:31:06;46.28;;;21.85;;
19339;SDS011;9804;52.350;6.684;2022-10-22T04:33:33;44.17;;;20.10;;
19339;SDS011;9804;52.350;6.684;2022-10-22T04:35:58;35.70;;;19.98;;
19339;SDS011;9804;52.350;6.684;2022-10-22T04:38:23;44.08;;;20.55;;
19339;SDS011;9804;52.350;6.684;2022-10-22T04:40:49;39.28;;;19.90;;
19339;SDS011;9804;52.350;6.684;2022-10-22T04:43:14;38.63;;;19.70;;
19339;SDS011;9804;52.350;6.684;2022-10-22T04:45:39;34.45;;;18.50;;
19339;SDS011;9804;52.350;6.684;2022-10-22T04:48:05;44.38;;;18.80;;
19339;SDS011;9804;52.350;6.684;2022-10-22T04:50:30;43.92;;;18.45;;
19339;SDS011;9804;52.350;6.684;2022-10-22T04:52:56;46.97;;;20.05;;
19339;SDS011;9804;52.350;6.684;2022-10-22T04:55:21;39.72;;;20.35;;
19339;SDS011;9804;52.350;6.684;2022-10-22T04:57:46;43.67;;;19.85;;
19339;SDS011;9804;52.350;6.684;2022-10-22T05:00:12;47.63;;;21.05;;
19339;SDS011;9804;52.350;6.684;2022-10-22T05:02:37;44.75;;;20.50;;
19339;SDS011;9804;52.350;6.684;2022-10-22T05:05:03;34.67;;;18.42;;
19339;SDS011;9804;52.350;6.684;2022-10-22T05:07:28;33.58;;;18.77;;
19339;SDS011;9804;52.350;6.684;2022-10-22T05:09:53;40.47;;;20.33;;
19339;SDS011;9804;52.350;6.684;2022-10-22T05:12:19;44.42;;;20.58;;
19339;SDS011;9804;52.350;6.684;2022-10-22T05:14:44;40.13;;;18.92;;
19339;SDS011;9804;52.350;6.684;2022-10-22T05:17:10;36.72;;;18.45;;
19339;SDS011;9804;52.350;6.684;2022-10-22T05:19:35;44.55;;;20.30;;
19339;SDS011;9804;52.350;6.684;2022-10-22T05:22:02;39.72;;;20.52;;
19339;SDS011;9804;52.350;6.684;2022-10-22T05:24:29;38.70;;;19.63;;
19339;SDS011;9804;52.350;6.684;2022-10-22T05:26:56;37.67;;;19.00;;
19339;SDS011;9804;52.350;6.684;2022-10-22T05:29:23;38.70;;;19.48;;
19339;SDS011;9804;52.350;6.684;2022-10-22T05:31:48;46.38;;;19.17;;
19339;SDS011;9804;52.350;6.684;2022-10-22T05:34:14;43.80;;;19.88;;
19339;SDS011;9804;52.350;6.684;2022-10-22T05:36:40;49.13;;;19.45;;
19339;SDS011;9804;52.350;6.684;2022-10-22T05:39:05;36.95;;;17.45;;
19339;SDS011;9804;52.350;6.684;2022-10-22T05:41:31;37.60;;;19.15;;
19339;SDS011;9804;52.350;6.684;2022-10-22T05:43:57;35.33;;;18.63;;
19339;SDS011;9804;52.350;6.684;2022-10-22T05:46:26;39.80;;;18.90;;
19339;SDS011;9804;52.350;6.684;2022-10-22T05:48:55;42.90;;;20.40;;
19339;SDS011;9804;52.350;6.684;2022-10-22T05:51:23;42.67;;;20.35;;
19339;SDS011;9804;52.350;6.684;2022-10-22T05:53:50;38.80;;;19.42;;
19339;SDS011;9804;52.350;6.684;2022-10-22T05:56:17;40.13;;;18.95;;
19339;SDS011;9804;52.350;6.684;2022-10-22T05:58:43;33.22;;;19.02;;
19339;SDS011;9804;52.350;6.684;2022-10-22T06:01:13;38.88;;;20.15;;
19339;SDS011;9804;52.350;6.684;2022-10-22T06:03:41;40.03;;;20.58;;
19339;SDS011;9804;52.350;6.684;2022-10-22T06:06:15;43.63;;;19.30;;
19339;SDS011;9804;52.350;6.684;2022-10-22T06:08:44;42.63;;;19.23;;
19339;SDS011;9804;52.350;6.684;2022-10-22T06:11:11;37.03;;;18.85;;
19339;SDS011;9804;52.350;6.684;2022-10-22T06:13:36;36.03;;;18.23;;
19339;SDS011;9804;52.350;6.684;2022-10-22T06:16:02;36.58;;;17.70;;
19339;SDS011;9804;52.350;6.684;2022-10-22T06:18:28;38.50;;;17.85;;
19339;SDS011;9804;52.350;6.684;2022-10-22T06:20:53;36.25;;;17.42;;
19339;SDS011;9804;52.350;6.684;2022-10-22T06:23:18;44.38;;;18.52;;
19339;SDS011;9804;52.350;6.684;2022-10-22T06:25:44;44.40;;;19.27;;
19339;SDS011;9804;52.350;6.684;2022-10-22T06:28:20;34.28;;;16.15;;
19339;SDS011;9804;52.350;6.684;2022-10-22T06:30:45;38.75;;;17.55;;
19339;SDS011;9804;52.350;6.684;2022-10-22T06:33:10;34.45;;;17.00;;
19339;SDS011;9804;52.350;6.684;2022-10-22T06:35:36;29.83;;;15.98;;
19339;SDS011;9804;52.350;6.684;2022-10-22T06:38:01;33.85;;;17.25;;
19339;SDS011;9804;52.350;6.684;2022-10-22T06:40:26;35.03;;;17.38;;
19339;SDS011;9804;52.350;6.684;2022-10-22T06:42:52;34.42;;;16.30;;
19339;SDS011;9804;52.350;6.684;2022-10-22T06:45:17;31.65;;;17.08;;
19339;SDS011;9804;52.350;6.684;2022-10-22T06:47:42;35.60;;;17.95;;
19339;SDS011;9804;52.350;6.684;2022-10-22T06:50:08;41.47;;;17.65;;
19339;SDS011;9804;52.350;6.684;2022-10-22T06:52:33;41.13;;;17.95;;
19339;SDS011;9804;52.350;6.684;2022-10-22T06:54:59;37.15;;;18.65;;
19339;SDS011;9804;52.350;6.684;2022-10-22T06:57:24;38.42;;;17.75;;
19339;SDS011;9804;52.350;6.684;2022-10-22T06:59:49;38.47;;;17.90;;
19339;SDS011;9804;52.350;6.684;2022-10-22T07:02:15;28.05;;;16.17;;
19339;SDS011;9804;52.350;6.684;2022-10-22T07:04:40;29.45;;;15.68;;
19339;SDS011;9804;52.350;6.684;2022-10-22T07:07:05;31.20;;;16.08;;
19339;SDS011;9804;52.350;6.684;2022-10-22T07:09:31;39.10;;;16.67;;
19339;SDS011;9804;52.350;6.684;2022-10-22T07:11:56;38.30;;;17.05;;
19339;SDS011;9804;52.350;6.684;2022-10-22T07:14:21;32.95;;;16.88;;
19339;SDS011;9804;52.350;6.684;2022-10-22T07:16:47;31.38;;;15.23;;
19339;SDS011;9804;52.350;6.684;2022-10-22T07:19:12;35.28;;;16.00;;
19339;SDS011;9804;52.350;6.684;2022-10-22T07:21:38;25.35;;;13.15;;
19339;SDS011;9804;52.350;6.684;2022-10-22T07:24:04;26.80;;;14.55;;
19339;SDS011;9804;52.350;6.684;2022-10-22T07:26:29;29.15;;;15.43;;
19339;SDS011;9804;52.350;6.684;2022-10-22T07:28:56;28.55;;;14.68;;
19339;SDS011;9804;52.350;6.684;2022-10-22T07:31:22;23.80;;;12.50;;
19339;SDS011;9804;52.350;6.684;2022-10-22T07:33:48;21.88;;;13.60;;
19339;SDS011;9804;52.350;6.684;2022-10-22T07:36:14;27.63;;;14.07;;
19339;SDS011;9804;52.350;6.684;2022-10-22T07:38:45;24.67;;;13.77;;
19339;SDS011;9804;52.350;6.684;2022-10-22T07:41:12;25.40;;;13.05;;
19339;SDS011;9804;52.350;6.684;2022-10-22T07:43:38;21.90;;;12.15;;
19339;SDS011;9804;52.350;6.684;2022-10-22T07:46:03;22.85;;;12.50;;
19339;SDS011;9804;52.350;6.684;2022-10-22T07:48:29;33.85;;;13.02;;
19339;SDS011;9804;52.350;6.684;2022-10-22T07:50:54;22.65;;;11.65;;
19339;SDS011;9804;52.350;6.684;2022-10-22T07:53:20;22.00;;;11.48;;
19339;SDS011;9804;52.350;6.684;2022-10-22T07:55:46;23.98;;;9.93;;
19339;SDS011;9804;52.350;6.684;2022-10-22T07:58:13;23.38;;;9.80;;
19339;SDS011;9804;52.350;6.684;2022-10-22T08:00:38;16.40;;;9.50;;
19339;SDS011;9804;52.350;6.684;2022-10-22T08:03:03;18.98;;;9.07;;
19339;SDS011;9804;52.350;6.684;2022-10-22T08:05:28;21.42;;;8.16;;
19339;SDS011;9804;52.350;6.684;2022-10-22T08:07:54;19.55;;;9.73;;
19339;SDS011;9804;52.350;6.684;2022-10-22T08:10:19;20.42;;;9.30;;
19339;SDS011;9804;52.350;6.684;2022-10-22T08:12:44;16.30;;;8.80;;
19339;SDS011;9804;52.350;6.684;2022-10-22T08:15:10;20.85;;;8.13;;
19339;SDS011;9804;52.350;6.684;2022-10-22T08:17:35;17.23;;;8.55;;
19339;SDS011;9804;52.350;6.684;2022-10-22T08:20:01;17.17;;;8.65;;
19339;SDS011;9804;52.350;6.684;2022-10-22T08:22:26;15.60;;;8.45;;
19339;SDS011;9804;52.350;6.684;2022-10-22T08:24:51;14.95;;;8.52;;
19339;SDS011;9804;52.350;6.684;2022-10-22T08:27:17;19.05;;;8.73;;
19339;SDS011;9804;52.350;6.684;2022-10-22T08:29:42;18.10;;;8.20;;
19339;SDS011;9804;52.350;6.684;2022-10-22T08:32:08;21.42;;;7.72;;
19339;SDS011;9804;52.350;6.684;2022-10-22T08:34:33;13.82;;;7.85;;
19339;SDS011;9804;52.350;6.684;2022-10-22T08:36:58;14.70;;;6.75;;
19339;SDS011;9804;52.350;6.684;2022-10-22T08:39:24;18.63;;;7.20;;
19339;SDS011;9804;52.350;6.684;2022-10-22T08:42:09;10.10;;;6.00;;
19339;SDS011;9804;52.350;6.684;2022-10-22T08:47:26;13.65;;;6.30;;
19339;SDS011;9804;52.350;6.684;2022-10-22T08:50:14;15.65;;;6.15;;
19339;SDS011;9804;52.350;6.684;2022-10-22T08:52:43;13.35;;;5.32;;
19339;SDS011;9804;52.350;6.684;2022-10-22T08:55:15;11.60;;;5.07;;
19339;SDS011;9804;52.350;6.684;2022-10-22T08:57:50;10.73;;;5.00;;
19339;SDS011;9804;52.350;6.684;2022-10-22T09:08:22;9.70;;;4.07;;
19339;SDS011;9804;52.350;6.684;2022-10-22T09:10:49;11.77;;;4.65;;
19339;SDS011;9804;52.350;6.684;2022-10-22T09:13:19;10.63;;;3.70;;
19339;SDS011;9804;52.350;6.684;2022-10-22T09:15:48;10.13;;;4.13;;
19339;SDS011;9804;52.350;6.684;2022-10-22T09:20:58;11.02;;;4.35;;
19339;SDS011;9804;52.350;6.684;2022-10-22T09:24:01;10.27;;;3.60;;
19339;SDS011;9804;52.350;6.684;2022-10-22T09:26:30;13.18;;;3.85;;
19339;SDS011;9804;52.350;6.684;2022-10-22T09:29:00;12.65;;;3.58;;
19339;SDS011;9804;52.350;6.684;2022-10-22T09:31:27;14.43;;;3.88;;
19339;SDS011;9804;52.350;6.684;2022-10-22T09:33:54;9.20;;;3.00;;
19339;SDS011;9804;52.350;6.684;2022-10-22T09:36:21;13.10;;;3.85;;
19339;SDS011;9804;52.350;6.684;2022-10-22T09:38:51;7.93;;;3.30;;
19339;SDS011;9804;52.350;6.684;2022-10-22T09:41:17;14.18;;;4.07;;
19339;SDS011;9804;52.350;6.684;2022-10-22T09:43:47;9.13;;;2.92;;
19339;SDS011;9804;52.350;6.684;2022-10-22T09:46:20;10.30;;;2.95;;
19339;SDS011;9804;52.350;6.684;2022-10-22T09:48:49;11.48;;;3.45;;
19339;SDS011;9804;52.350;6.684;2022-10-22T09:51:34;12.00;;;3.40;;
19339;SDS011;9804;52.350;6.684;2022-10-22T09:54:12;10.18;;;3.15;;
19339;SDS011;9804;52.350;6.684;2022-10-22T09:56:49;10.88;;;3.08;;
19339;SDS011;9804;52.350;6.684;2022-10-22T09:59:23;13.45;;;3.30;;
19339;SDS011;9804;52.350;6.684;2022-10-22T10:02:02;12.85;;;3.33;;
19339;SDS011;9804;52.350;6.684;2022-10-22T10:04:40;14.13;;;3.88;;
19339;SDS011;9804;52.350;6.684;2022-10-22T10:07:17;10.55;;;2.92;;
19339;SDS011;9804;52.350;6.684;2022-10-22T10:09:45;10.15;;;3.00;;
19339;SDS011;9804;52.350;6.684;2022-10-22T10:15:25;10.75;;;2.83;;
19339;SDS011;9804;52.350;6.684;2022-10-22T10:20:50;10.93;;;2.72;;
19339;SDS011;9804;52.350;6.684;2022-10-22T10:23:37;10.93;;;2.95;;
19339;SDS011;9804;52.350;6.684;2022-10-22T10:26:39;12.27;;;3.53;;
19339;SDS011;9804;52.350;6.684;2022-10-22T10:29:24;10.30;;;3.20;;
19339;SDS011;9804;52.350;6.684;2022-10-22T10:37:40;13.57;;;3.83;;
19339;SDS011;9804;52.350;6.684;2022-10-22T10:40:28;7.35;;;3.40;;
19339;SDS011;9804;52.350;6.684;2022-10-22T10:51:02;11.02;;;3.97;;
19339;SDS011;9804;52.350;6.684;2022-10-22T10:53:39;10.90;;;4.95;;
19339;SDS011;9804;52.350;6.684;2022-10-22T11:06:57;10.90;;;4.75;;
19339;SDS011;9804;52.350;6.684;2022-10-22T11:09:35;12.15;;;4.15;;
19339;SDS011;9804;52.350;6.684;2022-10-22T11:12:11;8.88;;;3.70;;
19339;SDS011;9804;52.350;6.684;2022-10-22T11:14:57;9.02;;;4.45;;
19339;SDS011;9804;52.350;6.684;2022-10-22T11:17:48;9.82;;;4.80;;
19339;SDS011;9804;52.350;6.684;2022-10-22T11:20:15;12.88;;;4.70;;
19339;SDS011;9804;52.350;6.684;2022-10-22T11:22:51;10.68;;;4.78;;
19339;SDS011;9804;52.350;6.684;2022-10-22T11:25:22;10.52;;;4.53;;
19339;SDS011;9804;52.350;6.684;2022-10-22T11:30:30;14.45;;;4.07;;
19339;SDS011;9804;52.350;6.684;2022-10-22T11:33:00;14.48;;;3.72;;
19339;SDS011;9804;52.350;6.684;2022-10-22T11:35:31;10.02;;;3.83;;
19339;SDS011;9804;52.350;6.684;2022-10-22T11:38:03;10.75;;;3.97;;
19339;SDS011;9804;52.350;6.684;2022-10-22T11:40:32;7.68;;;3.28;;
19339;SDS011;9804;52.350;6.684;2022-10-22T11:43:04;14.13;;;3.67;;
19339;SDS011;9804;52.350;6.684;2022-10-22T11:45:36;12.10;;;3.97;;
19339;SDS011;9804;52.350;6.684;2022-10-22T11:55:41;10.13;;;3.47;;
19339;SDS011;9804;52.350;6.684;2022-10-22T11:58:25;10.68;;;4.00;;
19339;SDS011;9804;52.350;6.684;2022-10-22T12:00:54;8.48;;;3.55;;
19339;SDS011;9804;52.350;6.684;2022-10-22T12:03:42;14.65;;;3.85;;
19339;SDS011;9804;52.350;6.684;2022-10-22T12:06:56;8.82;;;3.40;;
19339;SDS011;9804;52.350;6.684;2022-10-22T12:09:24;13.85;;;3.45;;
19339;SDS011;9804;52.350;6.684;2022-10-22T12:11:54;12.77;;;3.40;;
19339;SDS011;9804;52.350;6.684;2022-10-22T12:14:37;14.25;;;3.67;;
19339;SDS011;9804;52.350;6.684;2022-10-22T12:17:20;12.05;;;3.47;;
19339;SDS011;9804;52.350;6.684;2022-10-22T12:19:48;12.18;;;3.47;;
19339;SDS011;9804;52.350;6.684;2022-10-22T12:22:20;9.77;;;3.10;;
19339;SDS011;9804;52.350;6.684;2022-10-22T12:24:51;12.48;;;3.05;;
19339;SDS011;9804;52.350;6.684;2022-10-22T12:27:20;13.20;;;3.78;;
19339;SDS011;9804;52.350;6.684;2022-10-22T12:29:48;13.80;;;3.38;;
19339;SDS011;9804;52.350;6.684;2022-10-22T12:32:17;13.65;;;3.95;;
19339;SDS011;9804;52.350;6.684;2022-10-22T12:34:49;15.95;;;3.35;;
19339;SDS011;9804;52.350;6.684;2022-10-22T12:37:16;9.77;;;3.35;;
19339;SDS011;9804;52.350;6.684;2022-10-22T12:39:43;12.50;;;3.20;;
19339;SDS011;9804;52.350;6.684;2022-10-22T12:42:18;10.82;;;2.97;;
19339;SDS011;9804;52.350;6.684;2022-10-22T12:44:43;9.82;;;3.03;;
19339;SDS011;9804;52.350;6.684;2022-10-22T12:47:11;10.05;;;3.20;;
19339;SDS011;9804;52.350;6.684;2022-10-22T12:49:41;9.90;;;2.85;;
19339;SDS011;9804;52.350;6.684;2022-10-22T12:52:12;13.35;;;3.20;;
19339;SDS011;9804;52.350;6.684;2022-10-22T12:54:41;10.55;;;2.97;;
19339;SDS011;9804;52.350;6.684;2022-10-22T12:57:09;11.73;;;2.80;;
19339;SDS011;9804;52.350;6.684;2022-10-22T12:59:38;12.15;;;2.72;;
19339;SDS011;9804;52.350;6.684;2022-10-22T13:04:40;10.10;;;2.78;;
19339;SDS011;9804;52.350;6.684;2022-10-22T13:07:14;6.57;;;2.60;;
19339;SDS011;9804;52.350;6.684;2022-10-22T13:10:13;12.43;;;3.00;;
19339;SDS011;9804;52.350;6.684;2022-10-22T13:12:39;12.40;;;2.83;;
19339;SDS011;9804;52.350;6.684;2022-10-22T13:15:19;12.40;;;2.95;;
19339;SDS011;9804;52.350;6.684;2022-10-22T13:20:58;11.90;;;2.88;;
19339;SDS011;9804;52.350;6.684;2022-10-22T13:23:27;11.65;;;2.90;;
19339;SDS011;9804;52.350;6.684;2022-10-22T13:26:11;14.07;;;2.80;;
19339;SDS011;9804;52.350;6.684;2022-10-22T13:28:39;9.55;;;2.60;;
19339;SDS011;9804;52.350;6.684;2022-10-22T13:31:13;8.30;;;2.78;;
19339;SDS011;9804;52.350;6.684;2022-10-22T13:33:44;14.52;;;2.72;;
19339;SDS011;9804;52.350;6.684;2022-10-22T13:36:15;16.42;;;3.08;;
19339;SDS011;9804;52.350;6.684;2022-10-22T13:38:41;9.20;;;2.80;;
19339;SDS011;9804;52.350;6.684;2022-10-22T13:41:21;9.10;;;2.20;;
19339;SDS011;9804;52.350;6.684;2022-10-22T13:43:55;11.23;;;3.05;;
19339;SDS011;9804;52.350;6.684;2022-10-22T13:46:20;15.68;;;2.75;;
19339;SDS011;9804;52.350;6.684;2022-10-22T13:48:47;14.35;;;3.00;;
19339;SDS011;9804;52.350;6.684;2022-10-22T13:51:15;8.40;;;2.00;;
19339;SDS011;9804;52.350;6.684;2022-10-22T13:53:44;15.18;;;2.85;;
19339;SDS011;9804;52.350;6.684;2022-10-22T13:56:12;11.73;;;2.72;;
19339;SDS011;9804;52.350;6.684;2022-10-22T13:58:42;10.20;;;1.80;;
19339;SDS011;9804;52.350;6.684;2022-10-22T14:03:49;13.25;;;4.30;;
19339;SDS011;9804;52.350;6.684;2022-10-22T14:06:17;9.02;;;3.92;;
19339;SDS011;9804;52.350;6.684;2022-10-22T14:08:44;13.32;;;2.90;;
19339;SDS011;9804;52.350;6.684;2022-10-22T14:11:12;12.77;;;2.45;;
19339;SDS011;9804;52.350;6.684;2022-10-22T14:13:38;13.95;;;3.05;;
19339;SDS011;9804;52.350;6.684;2022-10-22T14:16:06;12.20;;;2.42;;
19339;SDS011;9804;52.350;6.684;2022-10-22T14:18:37;15.20;;;3.22;;
19339;SDS011;9804;52.350;6.684;2022-10-22T14:21:03;8.32;;;2.50;;
19339;SDS011;9804;52.350;6.684;2022-10-22T14:23:32;10.52;;;2.38;;
19339;SDS011;9804;52.350;6.684;2022-10-22T14:25:58;10.75;;;2.60;;
19339;SDS011;9804;52.350;6.684;2022-10-22T14:28:24;8.48;;;2.25;;
19339;SDS011;9804;52.350;6.684;2022-10-22T14:30:50;14.25;;;3.03;;
19339;SDS011;9804;52.350;6.684;2022-10-22T14:33:17;9.05;;;3.00;;
19339;SDS011;9804;52.350;6.684;2022-10-22T14:35:46;10.63;;;1.90;;
19339;SDS011;9804;52.350;6.684;2022-10-22T14:38:12;11.35;;;2.40;;
19339;SDS011;9804;52.350;6.684;2022-10-22T14:40:38;12.02;;;2.88;;
19339;SDS011;9804;52.350;6.684;2022-10-22T14:43:08;11.65;;;2.58;;
19339;SDS011;9804;52.350;6.684;2022-10-22T14:45:55;13.02;;;2.95;;
19339;SDS011;9804;52.350;6.684;2022-10-22T14:48:21;11.25;;;2.90;;
19339;SDS011;9804;52.350;6.684;2022-10-22T14:50:47;13.20;;;2.80;;
19339;SDS011;9804;52.350;6.684;2022-10-22T14:53:12;10.70;;;2.05;;
19339;SDS011;9804;52.350;6.684;2022-10-22T14:55:38;11.85;;;1.95;;
19339;SDS011;9804;52.350;6.684;2022-10-22T14:58:05;9.48;;;2.72;;
19339;SDS011;9804;52.350;6.684;2022-10-22T15:00:30;12.15;;;2.10;;
19339;SDS011;9804;52.350;6.684;2022-10-22T15:02:58;15.38;;;2.28;;
19339;SDS011;9804;52.350;6.684;2022-10-22T15:05:23;14.32;;;2.42;;
19339;SDS011;9804;52.350;6.684;2022-10-22T15:07:49;14.43;;;2.08;;
19339;SDS011;9804;52.350;6.684;2022-10-22T15:10:14;12.00;;;2.15;;
19339;SDS011;9804;52.350;6.684;2022-10-22T15:12:39;11.18;;;2.78;;
19339;SDS011;9804;52.350;6.684;2022-10-22T15:15:05;7.78;;;2.30;;
19339;SDS011;9804;52.350;6.684;2022-10-22T15:17:31;17.88;;;2.80;;
19339;SDS011;9804;52.350;6.684;2022-10-22T15:19:56;9.05;;;2.15;;
19339;SDS011;9804;52.350;6.684;2022-10-22T15:22:25;14.48;;;2.63;;
19339;SDS011;9804;52.350;6.684;2022-10-22T15:24:52;11.80;;;2.38;;
19339;SDS011;9804;52.350;6.684;2022-10-22T15:27:17;17.33;;;3.38;;
19339;SDS011;9804;52.350;6.684;2022-10-22T15:29:43;15.23;;;2.70;;
19339;SDS011;9804;52.350;6.684;2022-10-22T15:32:08;10.88;;;3.47;;
19339;SDS011;9804;52.350;6.684;2022-10-22T15:34:35;14.80;;;4.20;;
19339;SDS011;9804;52.350;6.684;2022-10-22T15:37:03;14.25;;;2.92;;
19339;SDS011;9804;52.350;6.684;2022-10-22T15:39:30;11.35;;;2.67;;
19339;SDS011;9804;52.350;6.684;2022-10-22T15:41:56;12.45;;;2.72;;
19339;SDS011;9804;52.350;6.684;2022-10-22T15:44:23;14.65;;;2.88;;
19339;SDS011;9804;52.350;6.684;2022-10-22T15:46:50;15.63;;;4.22;;
19339;SDS011;9804;52.350;6.684;2022-10-22T15:49:16;17.27;;;4.60;;
19339;SDS011;9804;52.350;6.684;2022-10-22T15:51:42;20.50;;;3.90;;
19339;SDS011;9804;52.350;6.684;2022-10-22T15:54:11;13.25;;;3.88;;
19339;SDS011;9804;52.350;6.684;2022-10-22T15:56:38;18.45;;;3.33;;
19339;SDS011;9804;52.350;6.684;2022-10-22T15:59:04;11.35;;;3.97;;
19339;SDS011;9804;52.350;6.684;2022-10-22T16:01:30;13.07;;;3.60;;
19339;SDS011;9804;52.350;6.684;2022-10-22T16:03:57;15.68;;;4.22;;
19339;SDS011;9804;52.350;6.684;2022-10-22T16:06:33;11.88;;;4.80;;
19339;SDS011;9804;52.350;6.684;2022-10-22T16:09:03;15.60;;;4.72;;
19339;SDS011;9804;52.350;6.684;2022-10-22T16:11:30;13.93;;;4.78;;
19339;SDS011;9804;52.350;6.684;2022-10-22T16:13:56;16.08;;;4.63;;
19339;SDS011;9804;52.350;6.684;2022-10-22T16:16:23;15.07;;;4.97;;
19339;SDS011;9804;52.350;6.684;2022-10-22T16:18:50;15.40;;;4.60;;